createdAt,value
2022-09-06T00:00:26.053Z,100.00
2022-09-06T00:02:58.161Z,100.00
2022-09-06T00:05:25.947Z,100.00
2022-09-06T00:07:53.539Z,100.00
2022-09-06T00:10:20.938Z,100.00
2022-09-06T00:12:48.384Z,100.00
2022-09-06T00:15:15.822Z,100.00
2022-09-06T00:17:45.217Z,100.00
2022-09-06T00:20:12.802Z,100.00
2022-09-06T00:22:40.405Z,100.00
2022-09-06T00:25:08.392Z,100.00
2022-09-06T00:27:36.118Z,100.00
2022-09-06T00:30:04.894Z,100.00
2022-09-06T00:32:32.685Z,100.00
2022-09-06T00:35:00.416Z,100.00
2022-09-06T00:37:27.679Z,100.00
2022-09-06T00:39:54.961Z,100.00
2022-09-06T00:42:22.542Z,100.00
2022-09-06T00:44:50.345Z,100.00
2022-09-06T00:47:17.961Z,100.00
2022-09-06T00:49:48.239Z,100.00
2022-09-06T00:52:17.211Z,100.00
2022-09-06T00:54:44.807Z,100.00
2022-09-06T00:57:13.835Z,100.00
2022-09-06T00:59:42.179Z,100.00
2022-09-06T01:02:10.207Z,100.00
2022-09-06T01:04:40.485Z,100.00
2022-09-06T01:07:10.377Z,100.00
2022-09-06T01:10:02.598Z,100.00
2022-09-06T01:12:38.009Z,100.00
2022-09-06T01:15:26.814Z,100.00
2022-09-06T01:18:16.463Z,100.00
2022-09-06T01:21:04.974Z,100.00
2022-09-06T01:23:51.393Z,100.00
2022-09-06T01:26:37.308Z,100.00
2022-09-06T01:29:13.093Z,100.00
2022-09-06T01:31:48.578Z,100.00
2022-09-06T01:34:26.122Z,100.00
2022-09-06T01:37:09.909Z,100.00
2022-09-06T01:39:40.119Z,100.00
2022-09-06T01:42:19.698Z,100.00
2022-09-06T01:44:54.160Z,100.00
2022-09-06T01:47:41.678Z,100.00
2022-09-06T01:50:24.540Z,100.00
2022-09-06T01:53:03.858Z,100.00
2022-09-06T01:56:00.386Z,100.00
2022-09-06T01:59:02.101Z,100.00
2022-09-06T02:01:35.310Z,100.00
2022-09-06T02:04:18.401Z,100.00
2022-09-06T02:06:47.593Z,100.00
2022-09-06T02:09:18.803Z,100.00
2022-09-06T02:11:58.167Z,100.00
2022-09-06T02:14:32.423Z,100.00
2022-09-06T02:17:00.476Z,100.00
2022-09-06T02:19:47.741Z,100.00
2022-09-06T02:22:17.833Z,100.00
2022-09-06T02:24:46.406Z,100.00
2022-09-06T02:27:14.605Z,100.00
2022-09-06T02:29:42.686Z,100.00
2022-09-06T02:32:14.475Z,100.00
2022-09-06T02:34:42.613Z,100.00
2022-09-06T02:37:12.242Z,100.00
2022-09-06T02:39:40.104Z,100.00
2022-09-06T02:42:09.889Z,100.00
2022-09-06T02:44:37.342Z,100.00
2022-09-06T02:47:04.869Z,100.00
2022-09-06T02:49:33.218Z,100.00
2022-09-06T02:52:00.796Z,100.00
2022-09-06T02:54:27.892Z,100.00
2022-09-06T02:56:55.224Z,100.00
2022-09-06T02:59:22.744Z,100.00
2022-09-06T03:01:49.983Z,100.00
2022-09-06T03:04:17.318Z,100.00
2022-09-06T03:06:45.026Z,100.00
2022-09-06T03:09:12.202Z,100.00
2022-09-06T03:11:39.540Z,100.00
2022-09-06T03:14:07.344Z,100.00
2022-09-06T03:16:35.042Z,100.00
2022-09-06T03:19:02.590Z,100.00
2022-09-06T03:21:30.083Z,100.00
2022-09-06T03:23:59.007Z,100.00
2022-09-06T03:26:26.478Z,100.00
2022-09-06T03:28:54.717Z,100.00
2022-09-06T03:31:22.101Z,100.00
2022-09-06T03:33:49.523Z,100.00
2022-09-06T03:36:17.143Z,100.00
2022-09-06T03:38:44.644Z,100.00
2022-09-06T03:41:12.045Z,100.00
2022-09-06T03:43:39.558Z,100.00
2022-09-06T03:46:07.071Z,100.00
2022-09-06T03:48:34.384Z,100.00
2022-09-06T03:51:02.070Z,100.00
2022-09-06T03:53:29.987Z,100.00
2022-09-06T03:55:58.450Z,100.00
2022-09-06T03:58:30.482Z,100.00
2022-09-06T04:01:09.238Z,100.00
2022-09-06T04:03:37.431Z,100.00
2022-09-06T04:06:05.736Z,100.00
2022-09-06T04:08:33.856Z,100.00
2022-09-06T04:11:01.775Z,100.00
2022-09-06T04:13:30.345Z,100.00
2022-09-06T04:15:58.263Z,100.00
2022-09-06T04:18:26.155Z,100.00
2022-09-06T04:20:56.073Z,100.00
2022-09-06T04:23:25.076Z,100.00
2022-09-06T04:25:55.029Z,100.00
2022-09-06T04:28:23.109Z,100.00
2022-09-06T04:30:56.926Z,100.00
2022-09-06T04:33:26.466Z,100.00
2022-09-06T04:35:58.243Z,100.00
2022-09-06T04:38:26.868Z,100.00
2022-09-06T04:40:55.779Z,100.00
2022-09-06T04:43:23.899Z,100.00
2022-09-06T04:45:51.364Z,100.00
2022-09-06T04:48:19.157Z,100.00
2022-09-06T04:50:46.377Z,100.00
2022-09-06T04:53:13.737Z,100.00
2022-09-06T04:55:41.192Z,100.00
2022-09-06T04:58:08.522Z,100.00
2022-09-06T05:00:36.734Z,100.00
2022-09-06T05:03:04.833Z,100.00
2022-09-06T05:05:32.070Z,100.00
2022-09-06T05:07:59.643Z,97.64
2022-09-06T05:10:27.913Z,96.93
2022-09-06T05:12:55.348Z,91.89
2022-09-06T05:15:23.953Z,93.35
2022-09-06T05:17:51.768Z,90.80
2022-09-06T05:20:19.489Z,88.35
2022-09-06T05:22:52.743Z,85.77
2022-09-06T05:25:20.409Z,83.46
2022-09-06T05:27:47.852Z,85.01
2022-09-06T05:30:15.813Z,83.27
2022-09-06T05:32:44.095Z,84.05
2022-09-06T05:35:11.564Z,84.98
2022-09-06T05:37:38.838Z,83.40
2022-09-06T05:40:07.196Z,82.27
2022-09-06T05:42:34.443Z,80.41
2022-09-06T05:45:06.813Z,79.70
2022-09-06T05:47:35.672Z,83.61
2022-09-06T05:50:04.084Z,80.18
2022-09-06T05:52:31.501Z,79.93
2022-09-06T05:55:02.783Z,79.38
2022-09-06T05:57:30.424Z,78.42
2022-09-06T05:59:58.332Z,77.00
2022-09-06T06:02:26.085Z,76.50
2022-09-06T06:04:54.895Z,76.35
2022-09-06T06:07:22.500Z,77.93
2022-09-06T06:09:50.057Z,76.93
2022-09-06T06:12:17.388Z,77.92
2022-09-06T06:14:44.838Z,77.18
2022-09-06T06:17:12.395Z,77.78
2022-09-06T06:19:40.426Z,77.94
2022-09-06T06:22:07.775Z,76.00
2022-09-06T06:24:35.459Z,76.18
2022-09-06T06:27:03.811Z,75.21
2022-09-06T06:29:31.789Z,74.06
2022-09-06T06:31:59.567Z,72.98
2022-09-06T06:34:27.030Z,72.91
2022-09-06T06:36:54.477Z,70.66
2022-09-06T06:39:22.304Z,70.86
2022-09-06T06:41:50.978Z,67.14
2022-09-06T06:44:41.666Z,65.48
2022-09-06T06:47:08.940Z,65.86
2022-09-06T06:49:36.373Z,64.38
2022-09-06T06:52:03.847Z,63.87
2022-09-06T06:54:31.161Z,65.85
2022-09-06T06:56:58.653Z,64.72
2022-09-06T06:59:26.382Z,62.25
2022-09-06T07:01:54.270Z,62.11
2022-09-06T07:04:21.845Z,63.09
2022-09-06T07:12:30.022Z,56.82
2022-09-06T07:14:57.372Z,55.45
2022-09-06T07:17:24.684Z,54.45
2022-09-06T07:22:40.700Z,50.73
2022-09-06T07:25:10.099Z,49.01
2022-09-06T07:27:52.855Z,49.18
2022-09-06T07:30:20.842Z,48.66
2022-09-06T07:32:48.666Z,48.42
2022-09-06T07:35:16.346Z,48.25
2022-09-06T07:37:43.835Z,47.71
2022-09-06T07:40:11.624Z,46.53
2022-09-06T07:42:39.462Z,48.20
2022-09-06T07:45:07.613Z,49.13
2022-09-06T07:53:15.082Z,46.46
2022-09-06T07:55:45.355Z,43.84
2022-09-06T07:58:12.848Z,46.26
2022-09-06T08:00:41.651Z,45.67
2022-09-06T08:03:09.553Z,44.03
2022-09-06T08:11:13.684Z,43.18
2022-09-06T08:13:42.406Z,43.92
2022-09-06T08:16:11.695Z,43.59
2022-09-06T08:18:39.230Z,43.32
2022-09-06T08:21:12.187Z,41.53
2022-09-06T08:23:43.084Z,41.33
2022-09-06T08:26:11.283Z,40.37
2022-09-06T08:28:38.811Z,41.78
2022-09-06T08:31:10.516Z,41.70
2022-09-06T08:33:39.370Z,40.69
2022-09-06T08:36:08.982Z,40.85
2022-09-06T08:38:36.743Z,41.28
2022-09-06T08:41:14.931Z,41.87
2022-09-06T08:47:09.902Z,40.55
2022-09-06T08:49:46.366Z,40.20
2022-09-06T08:52:39.353Z,40.85
2022-09-06T08:55:38.127Z,40.00
2022-09-06T08:58:24.314Z,40.34
2022-09-06T09:01:08.014Z,41.94
2022-09-06T09:03:38.072Z,39.49
2022-09-06T09:06:07.840Z,39.32
2022-09-06T09:08:59.827Z,40.81
2022-09-06T09:11:28.726Z,39.69
2022-09-06T09:14:04.602Z,40.44
2022-09-06T09:16:32.920Z,39.97
2022-09-06T09:19:05.306Z,41.66
2022-09-06T09:21:34.640Z,42.30
2022-09-06T09:24:08.319Z,40.88
2022-09-06T09:26:49.909Z,40.56
2022-09-06T09:29:17.795Z,40.45
2022-09-06T09:31:58.530Z,41.93
2022-09-06T09:34:38.041Z,40.70
2022-09-06T09:40:27.916Z,39.86
2022-09-06T09:42:56.790Z,39.21
2022-09-06T09:45:31.394Z,40.12
2022-09-06T09:48:18.164Z,38.25
2022-09-06T09:50:45.648Z,38.07
2022-09-06T09:53:15.804Z,40.69
2022-09-06T09:55:43.746Z,37.90
2022-09-06T09:58:31.367Z,38.65
2022-09-06T10:01:19.230Z,38.74
2022-09-06T10:09:34.270Z,36.49
2022-09-06T10:12:02.249Z,36.05
2022-09-06T10:14:40.678Z,36.14
2022-09-06T10:17:08.273Z,37.24
2022-09-06T10:19:43.361Z,38.23
2022-09-06T10:22:23.468Z,36.94
2022-09-06T10:25:23.047Z,38.12
2022-09-06T10:28:11.491Z,36.30
2022-09-06T10:31:02.726Z,37.52
2022-09-06T10:33:49.284Z,38.18
2022-09-06T10:36:20.738Z,38.43
2022-09-06T10:38:55.084Z,38.86
2022-09-06T10:41:57.759Z,38.57
2022-09-06T10:45:02.894Z,35.86
2022-09-06T10:47:44.668Z,36.95
2022-09-06T10:50:14.160Z,36.35
2022-09-06T10:52:44.510Z,36.27
2022-09-06T10:55:15.573Z,35.74
2022-09-06T11:00:46.973Z,37.10
2022-09-06T11:06:11.869Z,36.74
2022-09-06T11:09:10.969Z,35.13
2022-09-06T11:12:30.989Z,36.61
2022-09-06T11:15:01.346Z,35.00
2022-09-06T11:17:34.238Z,37.57
2022-09-06T11:20:08.957Z,35.96
2022-09-06T11:22:55.030Z,36.34
2022-09-06T11:25:47.839Z,36.54
2022-09-06T11:28:19.913Z,35.52
2022-09-06T11:30:48.526Z,35.86
2022-09-06T11:33:25.562Z,35.93
2022-09-06T11:35:54.312Z,36.57
2022-09-06T11:38:26.965Z,37.24
2022-09-06T11:40:58.795Z,34.97
2022-09-06T11:43:49.710Z,33.81
2022-09-06T11:46:36.111Z,34.66
2022-09-06T11:49:29.603Z,34.83
2022-09-06T11:51:57.316Z,33.99
2022-09-06T11:54:30.982Z,35.47
2022-09-06T11:57:10.237Z,34.87
2022-09-06T11:59:46.582Z,34.44
2022-09-06T12:02:46.523Z,34.56
2022-09-06T12:05:17.835Z,34.88
2022-09-06T12:08:11.268Z,35.59
2022-09-06T12:10:42.157Z,33.22
2022-09-06T12:13:47.253Z,33.76
2022-09-06T12:16:15.989Z,33.35
2022-09-06T12:18:43.924Z,34.73
2022-09-06T12:21:34.115Z,33.04
2022-09-06T12:24:02.613Z,32.95
2022-09-06T12:26:55.734Z,33.96
2022-09-06T12:29:26.250Z,31.95
2022-09-06T12:32:01.925Z,33.17
2022-09-06T12:34:31.862Z,32.87
2022-09-06T12:37:09.378Z,32.07
2022-09-06T12:39:37.294Z,33.70
2022-09-06T12:42:08.309Z,32.35
2022-09-06T12:44:45.499Z,34.69
2022-09-06T12:47:31.649Z,34.35
2022-09-06T12:50:08.366Z,32.45
2022-09-06T12:52:45.534Z,31.61
2022-09-06T12:55:33.950Z,31.08
2022-09-06T12:58:04.885Z,31.81
2022-09-06T13:00:37.528Z,33.77
2022-09-06T13:03:19.949Z,32.18
2022-09-06T13:05:47.643Z,32.09
2022-09-06T13:08:23.007Z,32.44
2022-09-06T13:10:50.663Z,32.98
2022-09-06T13:13:23.948Z,32.31
2022-09-06T13:15:51.353Z,31.72
2022-09-06T13:18:27.583Z,32.87
2022-09-06T13:21:12.049Z,32.84
2022-09-06T13:23:42.430Z,32.15
2022-09-06T13:26:10.138Z,33.06
2022-09-06T13:28:38.022Z,33.42
2022-09-06T13:31:08.883Z,33.63
2022-09-06T13:33:37.993Z,32.17
2022-09-06T13:36:30.415Z,31.92
2022-09-06T13:38:59.379Z,33.29
2022-09-06T13:41:26.863Z,33.45
2022-09-06T13:44:07.829Z,33.71
2022-09-06T13:46:38.518Z,31.66
2022-09-06T13:49:06.353Z,32.16
2022-09-06T13:51:34.543Z,33.38
2022-09-06T13:54:10.847Z,33.54
2022-09-06T13:56:39.465Z,32.83
2022-09-06T13:59:10.046Z,33.48
2022-09-06T14:01:38.887Z,32.44
2022-09-06T14:04:07.231Z,33.02
2022-09-06T14:06:37.076Z,32.78
2022-09-06T14:09:07.697Z,32.30
2022-09-06T14:11:36.883Z,33.27
2022-09-06T14:14:05.349Z,33.07
2022-09-06T14:16:34.686Z,32.39
2022-09-06T14:19:04.341Z,32.41
2022-09-06T14:21:32.272Z,32.51
2022-09-06T14:24:04.060Z,32.97
2022-09-06T14:26:33.265Z,33.29
2022-09-06T14:29:00.960Z,33.30
2022-09-06T14:31:29.240Z,33.60
2022-09-06T14:33:57.498Z,34.41
2022-09-06T14:36:27.649Z,32.87
2022-09-06T14:39:01.258Z,33.97
2022-09-06T14:41:30.432Z,33.43
2022-09-06T14:43:59.254Z,34.98
2022-09-06T14:46:28.090Z,33.56
2022-09-06T14:49:12.790Z,34.99
2022-09-06T14:51:40.927Z,35.09
2022-09-06T14:54:12.819Z,34.29
2022-09-06T14:56:42.074Z,33.10
2022-09-06T14:59:10.774Z,33.85
2022-09-06T15:01:39.399Z,32.91
2022-09-06T15:04:09.593Z,32.59
2022-09-06T15:06:40.463Z,33.94
2022-09-06T15:09:08.311Z,33.39
2022-09-06T15:11:38.036Z,33.27
2022-09-06T15:14:08.763Z,33.68
2022-09-06T15:16:36.460Z,33.93
2022-09-06T15:19:04.226Z,33.70
2022-09-06T15:21:34.809Z,33.94
2022-09-06T15:24:03.538Z,35.11
2022-09-06T15:26:31.132Z,35.89
2022-09-06T15:28:58.978Z,36.20
2022-09-06T15:31:27.520Z,34.43
2022-09-06T15:33:55.397Z,36.11
2022-09-06T15:36:23.290Z,36.11
2022-09-06T15:38:52.567Z,35.81
2022-09-06T15:41:24.452Z,36.59
2022-09-06T15:43:57.709Z,36.64
2022-09-06T15:46:43.843Z,36.39
2022-09-06T15:49:15.157Z,37.28
2022-09-06T15:51:42.842Z,37.86
2022-09-06T15:54:11.785Z,37.55
2022-09-06T15:56:39.439Z,37.79
2022-09-06T15:59:07.090Z,36.85
2022-09-06T16:01:35.137Z,36.93
2022-09-06T16:04:06.778Z,38.34
2022-09-06T16:06:42.149Z,37.59
2022-09-06T16:09:14.243Z,38.33
2022-09-06T16:11:42.271Z,38.47
2022-09-06T16:14:11.948Z,38.01
2022-09-06T16:16:40.645Z,38.49
2022-09-06T16:19:08.485Z,38.71
2022-09-06T16:21:38.670Z,38.64
2022-09-06T16:24:08.975Z,39.22
2022-09-06T16:26:41.383Z,39.34
2022-09-06T16:29:11.358Z,40.04
2022-09-06T16:31:40.514Z,40.72
2022-09-06T16:34:09.964Z,41.37
2022-09-06T16:36:37.949Z,41.87
2022-09-06T16:39:06.755Z,41.50
2022-09-06T16:41:42.943Z,41.43
2022-09-06T16:44:17.054Z,42.65
2022-09-06T16:46:46.635Z,43.35
2022-09-06T16:49:17.389Z,43.75
2022-09-06T16:51:46.255Z,43.95
2022-09-06T16:54:15.726Z,44.47
2022-09-06T16:56:44.248Z,46.67
2022-09-06T16:59:13.038Z,46.70
2022-09-06T17:01:44.558Z,48.93
2022-09-06T17:04:15.467Z,50.33
2022-09-06T17:06:44.969Z,54.22
2022-09-06T17:09:18.834Z,57.92
2022-09-06T17:11:50.329Z,56.36
2022-09-06T17:14:18.659Z,61.83
2022-09-06T17:17:04.553Z,60.25
2022-09-06T17:19:38.169Z,61.16
2022-09-06T17:22:05.938Z,61.83
2022-09-06T17:24:34.082Z,63.80
2022-09-06T17:27:01.726Z,64.29
2022-09-06T17:29:29.456Z,68.89
2022-09-06T17:31:57.114Z,70.00
2022-09-06T17:34:24.721Z,70.79
2022-09-06T17:36:53.623Z,72.54
2022-09-06T17:39:21.946Z,73.21
2022-09-06T17:41:54.366Z,74.59
2022-09-06T17:44:25.571Z,76.93
2022-09-06T17:47:11.963Z,77.70
2022-09-06T17:49:40.748Z,79.33
2022-09-06T17:52:08.406Z,82.25
2022-09-06T17:54:36.028Z,82.94
2022-09-06T17:57:03.853Z,83.78
2022-09-06T17:59:35.007Z,84.46
2022-09-06T18:02:05.296Z,85.88
2022-09-06T18:04:33.390Z,87.87
2022-09-06T18:07:00.984Z,89.40
2022-09-06T18:09:28.769Z,90.54
2022-09-06T18:11:56.162Z,91.17
2022-09-06T18:14:23.754Z,92.52
2022-09-06T18:16:52.251Z,93.95
2022-09-06T18:19:20.569Z,94.03
2022-09-06T18:21:48.803Z,94.56
2022-09-06T18:24:16.722Z,95.21
2022-09-06T18:26:44.956Z,95.95
2022-09-06T18:29:15.097Z,97.33
2022-09-06T18:31:43.695Z,98.22
2022-09-06T18:34:11.441Z,98.45
2022-09-06T18:36:39.483Z,98.17
2022-09-06T18:39:07.208Z,97.90
2022-09-06T18:41:53.514Z,98.29
2022-09-06T18:44:22.555Z,98.38
2022-09-06T18:46:50.150Z,99.01
2022-09-06T18:49:17.775Z,99.65
2022-09-06T18:51:46.114Z,100.00
2022-09-06T18:54:14.216Z,100.00
2022-09-06T18:56:42.278Z,100.00
2022-09-06T18:59:11.050Z,100.00
2022-09-06T19:01:40.190Z,100.00
2022-09-06T19:04:07.739Z,100.00
2022-09-06T19:06:37.119Z,100.00
2022-09-06T19:09:08.091Z,100.00
2022-09-06T19:11:35.595Z,100.00
2022-09-06T19:14:04.272Z,100.00
2022-09-06T19:16:32.106Z,100.00
2022-09-06T19:19:07.805Z,100.00
2022-09-06T19:21:41.021Z,100.00
2022-09-06T19:24:11.007Z,100.00
2022-09-06T19:26:41.765Z,100.00
2022-09-06T19:29:13.925Z,100.00
2022-09-06T19:31:43.270Z,100.00
2022-09-06T19:34:12.241Z,100.00
2022-09-06T19:36:39.784Z,100.00
2022-09-06T19:39:10.028Z,100.00
2022-09-06T19:41:39.900Z,100.00
2022-09-06T19:44:09.135Z,100.00
2022-09-06T19:46:37.698Z,100.00
2022-09-06T19:49:08.356Z,100.00
2022-09-06T19:51:36.959Z,100.00
2022-09-06T19:54:05.243Z,100.00
2022-09-06T19:56:34.958Z,100.00
2022-09-06T19:59:05.421Z,100.00
2022-09-06T20:01:34.940Z,100.00
2022-09-06T20:04:04.042Z,100.00
2022-09-06T20:06:32.047Z,100.00
2022-09-06T20:09:01.085Z,100.00
2022-09-06T20:11:30.957Z,100.00
2022-09-06T20:13:59.556Z,100.00
2022-09-06T20:16:27.664Z,100.00
2022-09-06T20:18:55.355Z,100.00
2022-09-06T20:21:23.053Z,100.00
2022-09-06T20:23:52.358Z,100.00
2022-09-06T20:26:20.955Z,100.00
2022-09-06T20:28:48.986Z,100.00
2022-09-06T20:31:18.530Z,100.00
2022-09-06T20:33:49.636Z,100.00
2022-09-06T20:36:18.426Z,100.00
2022-09-06T20:38:47.236Z,100.00
2022-09-06T20:41:17.498Z,100.00
2022-09-06T20:43:45.341Z,100.00
2022-09-06T20:46:17.730Z,100.00
2022-09-06T20:48:46.436Z,100.00
2022-09-06T20:51:21.634Z,100.00
2022-09-06T20:53:56.191Z,100.00
2022-09-06T20:56:25.929Z,100.00
2022-09-06T20:58:56.479Z,100.00
2022-09-06T21:01:26.764Z,100.00
2022-09-06T21:03:56.205Z,100.00
2022-09-06T21:06:24.918Z,100.00
2022-09-06T21:08:52.434Z,100.00
2022-09-06T21:11:22.263Z,100.00
2022-09-06T21:13:51.470Z,100.00
2022-09-06T21:16:24.191Z,100.00
2022-09-06T21:18:57.384Z,100.00
2022-09-06T21:21:25.822Z,100.00
2022-09-06T21:23:53.564Z,100.00
2022-09-06T21:26:21.796Z,100.00
2022-09-06T21:28:50.036Z,100.00
2022-09-06T21:31:23.541Z,100.00
2022-09-06T21:33:53.017Z,100.00
2022-09-06T21:36:23.321Z,100.00
2022-09-06T21:38:53.715Z,100.00
2022-09-06T21:41:22.224Z,100.00
2022-09-06T21:44:03.129Z,100.00
2022-09-06T21:46:34.206Z,100.00
2022-09-06T21:49:04.756Z,100.00
2022-09-06T21:51:33.005Z,100.00
2022-09-06T21:54:04.279Z,100.00
2022-09-06T21:56:36.726Z,100.00
2022-09-06T21:59:05.579Z,100.00
2022-09-06T22:01:35.097Z,100.00
2022-09-06T22:04:02.875Z,100.00
2022-09-06T22:06:31.951Z,100.00
2022-09-06T22:09:01.309Z,100.00
2022-09-06T22:11:31.001Z,100.00
2022-09-06T22:14:01.021Z,100.00
2022-09-06T22:16:29.708Z,100.00
2022-09-06T22:18:57.261Z,100.00
2022-09-06T22:21:24.878Z,100.00
2022-09-06T22:23:56.441Z,100.00
2022-09-06T22:26:25.660Z,100.00
2022-09-06T22:28:55.094Z,100.00
2022-09-06T22:31:23.161Z,100.00
2022-09-06T22:33:51.248Z,100.00
2022-09-06T22:36:19.194Z,100.00
2022-09-06T22:38:48.920Z,100.00
2022-09-06T22:41:16.355Z,100.00
2022-09-06T22:43:44.122Z,100.00
2022-09-06T22:46:12.887Z,100.00
2022-09-06T22:48:40.456Z,100.00
2022-09-06T22:51:08.040Z,100.00
2022-09-06T22:53:35.721Z,100.00
2022-09-06T22:56:03.650Z,100.00
2022-09-06T22:58:31.366Z,100.00
2022-09-06T23:01:06.239Z,100.00
2022-09-06T23:03:35.568Z,100.00
2022-09-06T23:06:03.413Z,100.00
2022-09-06T23:08:31.692Z,100.00
2022-09-06T23:11:04.434Z,100.00
2022-09-06T23:13:31.658Z,100.00
2022-09-06T23:16:03.786Z,100.00
2022-09-06T23:18:31.480Z,100.00
2022-09-06T23:21:10.308Z,100.00
2022-09-06T23:23:38.365Z,100.00
2022-09-06T23:26:08.359Z,100.00
2022-09-06T23:28:36.146Z,100.00
2022-09-06T23:31:08.725Z,100.00
2022-09-06T23:33:37.473Z,100.00
2022-09-06T23:36:05.793Z,100.00
2022-09-06T23:38:34.617Z,100.00
2022-09-06T23:41:02.578Z,100.00
2022-09-06T23:43:30.219Z,100.00
2022-09-06T23:45:58.597Z,100.00
2022-09-06T23:48:26.014Z,100.00
2022-09-06T23:50:55.661Z,100.00
2022-09-06T23:53:23.784Z,100.00
2022-09-06T23:55:51.074Z,100.00
2022-09-06T23:58:18.869Z,100.00
